Owen Roberts, Cayman Islands

11:08 PM EST on September 04, 2015 (GMT -0500)
Crewe Road, G.T. | | Change Station
CLOSE
Current Station
Personal Weather Station
Location: George Town, Grand Cayman
Elevation: 10 ft
Nearby Weather Stations

Elev 10 ft 19.29 °N, 81.36 °W | Updated 3 seconds ago

Partly Cloudy
Partly Cloudy
79.9 °F
Feels Like 85 °F
N
0.0
Wind Variable Wind from ESE
Gusts 0.0 mph

Today
High -- | Low -- °F
--% Chance of Precip.
Yesterday
High -- | Low -- °F
Precip. -- in
6:10 AM 6:37 PM
Waning Gibbous, 53% visible
Pressure 29.98 in
Visibility 6.2 miles
Clouds Few 1800 ft
Heat Index 85 °F
Dew Point 77 °F
Humidity 90%
Rainfall in
Snow Depth Not available.
UV 0.0 out of 12
Pollen Not available.
Air Quality Not available.
Flu Activity Not available.
METAR MWCR 050300Z 08004KT 9999 FEW018 28/26 Q1015 NOSIG
Pressure 29.98 in
Visibility 6.2 miles
Clouds Few 1800 ft
Heat Index 85 °F
Dew Point 77 °F
Humidity 90%
Rainfall in
Snow Depth Not available.
UV 0.0 out of 12
Pollen Not available.
Air Quality Not available.
Flu Activity Not available.
METAR MWCR 050300Z 08004KT 9999 FEW018 28/26 Q1015 NOSIG

10-Day Weather Forecast

×

Almanac

Astronomy

Sep. 04, 2015 Rise Set
Actual Time
Civil Twilight
Nautical Twilight
Astronomical Twilight
Moon
Length of Visible Light
Length of Day
Tomorrow will be .
, % of the Moon is Illuminated

Today's Extremes

Country Highs Country Lows

Community

WunderPhotos

Upload Photos

1,852,418 photos uploaded!

WunderBlogs® & News

Nearby

Air Quality

  Air Quality AQ Index Pollutant
Not available.

Snow Depth

Station Depth Elevation

Earthquake Activity

City Distance Mag. Time & Date
Minimum magnitude displayed is 2.5.

Coastal Water Temperatures

Place Temperature

Stations

Nearby Weather Stations

Station Location Temp. Windchill Dew Point Humidity Wind Precip. Elev Updated Type